Terminal Aerodrome Forecast
Issued by NWS

Home | Current Version | Previous Version | Text Only | Print | Product List | Glossary Off
Versions: 1 2 3 4 5 6 7 8 9 10 11 12 13 14 15 16

000
FTUS43 KFGF 212027 AAA
TAFBJI
TAF AMD
KBJI 212027Z 2120/2218 32008KT 3SM -RA OVC008
     FM212100 31009KT 5SM -SHRA OVC008
     FM220300 29008KT P6SM OVC008
     FM221600 31009KT P6SM OVC010=

USA.gov is the U.S. government's official web portal to all federal, state and local government web resources and services.